Wittman Regional Airport
KOSH : now visible

Airfield :











YOU CAN JOIN US ON...

 
LOGIN :

Register | Disclaimer

   EN    FR    IT 

 









Legend :    VFR   Marginal VFR   IFR   Intensive IFR   Very Intensive IFR
Visi :
Ceiling :
>= 8 km
>= 3000ft
5 to 8 km
1000 to 3000 ft
1500m to 5 km
500 to 1000 ft
800 to 1500m
200 to 500 ft
< 800m
< 200 ft
Symbols :   Thunderstorms  Fog  Heavy snow  Heavy precipitations  Wind > 20 kt






- Airport Elevation : 808 ft
- IATA code : OSH


KOSH - Wittman Regional

CURRENT METAR :
  • 311853Z 25006KT 3SM HZ BKN034 25/18 A2996 RMK AO2 SLP134 T02500178

EXPIRED METARs :
  • 311804Z 28009G15KT 2 1/2SM HZ SCT028 BKN035 24/18 A2997 RMK AO2 T02440183
  • 311753Z 28008KT 3SM HZ BKN028 BKN035 24/18 A2998 RMK AO2 SLP142 T02390178 10244 20161 58007
  • 311733Z 28006KT 3SM HZ BKN028 BKN035 24/18 A2998 RMK AO2 T02390178
  • 311708Z 26007KT 3SM HZ CLR 24/18 A2998 RMK AO2 T02390183
  • 311653Z 27007KT 2 1/2SM HZ CLR 23/19 A2998 RMK AO2 SLP145 T02330189
  • 311604Z 23008KT 2 1/2SM HZ SCT011 21/18 A2999 RMK AO2 T02110183
  • 311553Z 23008KT 2 1/2SM HZ BKN011 21/18 A2999 RMK AO2 SLP150 T02060178

TAF KOSH
Valid from the 31 at 18:00 until the 01 at 18:00 UTC


311812Z 3118/0118 27009KT 3SM FU SCT028 BKN035
FM312000 29009G16KT 6SM FU VCSH SCT030 BKN080
TEMPO 3121/3124 5SM TSRA BKN035CB
FM010200 32007KT 5SM FU SCT040 BKN080
FM010400 35007KT 5SM FU SCT040
FM011400 36008G14KT P6SM BKN040
KZAU FIR / North America



MET'MAP, your aeronautical weather chart ! - Copyright ORBIFLY December 2007 - Disclaimer

ORBIFLY MET'MAP TEAM :

Programming & Development : Alexandra Zaïnal
Concept & original design : Baudouin d'Aumeries
Assistance for programming : Marc-Olivier Méhu
Technical & hardware support : Manuel Goepfert

Contact : metmap@orbifly.com




SOURCES & CREDITS :

   NOAA       Earth
Advisory